AAL474 KDFW-KPHX
Flight info
| Callsign | AAL474 |
|---|---|
| Flight time | 2h 6m |
| Altitude | 36000 |
| Route | WSTEX2 CIKAN EWM DRRVR PINNG1 |
| Aircraft | A321/M-SDE3FGHIRWY/LB1 |
Departure
| Time | 2026-05-06 02:46 |
|---|---|
| Airport | Dallas Fort Worth International Airport (KDFW) |
Arrival
| Time | 2026-05-06 04:53 |
|---|---|
| Airport | Phoenix Sky Harbor International Airport (KPHX) |
| Time | Latitude | Longitude | Altitude | Speed | Heading |
|---|---|---|---|---|---|
| 2026-05-06 02:15 | 32.89997 | -97.04422 | 596 ft | 0 kts | 181° |
| 2026-05-06 02:21 | 32.89998 | -97.04422 | 596 ft | 0 kts | 181° |
| 2026-05-06 02:28 | 32.90006 | -97.04421 | 596 ft | 4 kts | 179° |
| 2026-05-06 02:28 | 32.90033 | -97.04423 | 596 ft | 4 kts | 174° |
| 2026-05-06 02:29 | 32.90060 | -97.04426 | 596 ft | 4 kts | 180° |
| 2026-05-06 02:29 | 32.90080 | -97.04423 | 597 ft | 4 kts | 240° |
| 2026-05-06 02:29 | 32.90082 | -97.04415 | 597 ft | 1 kts | 270° |
| 2026-05-06 02:29 | 32.90082 | -97.04414 | 597 ft | 0 kts | 270° |
| 2026-05-06 02:33 | 32.90082 | -97.04429 | 597 ft | 2 kts | 270° |
| 2026-05-06 02:34 | 32.90082 | -97.04453 | 597 ft | 4 kts | 270° |
| 2026-05-06 02:34 | 32.90083 | -97.04488 | 597 ft | 5 kts | 271° |
| 2026-05-06 02:34 | 32.90083 | -97.04531 | 598 ft | 5 kts | 271° |
| 2026-05-06 02:34 | 32.90083 | -97.04575 | 598 ft | 5 kts | 271° |
| 2026-05-06 02:35 | 32.90083 | -97.04618 | 599 ft | 5 kts | 270° |
| 2026-05-06 02:35 | 32.90083 | -97.04663 | 600 ft | 5 kts | 270° |
| 2026-05-06 02:35 | 32.90082 | -97.04710 | 600 ft | 6 kts | 269° |
| 2026-05-06 02:35 | 32.90073 | -97.04758 | 601 ft | 6 kts | 227° |
| 2026-05-06 02:36 | 32.90026 | -97.04766 | 601 ft | 8 kts | 181° |
| 2026-05-06 02:36 | 32.89959 | -97.04766 | 600 ft | 11 kts | 180° |
| 2026-05-06 02:36 | 32.89867 | -97.04768 | 598 ft | 15 kts | 181° |
| 2026-05-06 02:36 | 32.89758 | -97.04768 | 597 ft | 16 kts | 179° |
| 2026-05-06 02:37 | 32.89645 | -97.04768 | 598 ft | 16 kts | 180° |
| 2026-05-06 02:37 | 32.89527 | -97.04769 | 597 ft | 18 kts | 180° |
| 2026-05-06 02:37 | 32.89391 | -97.04772 | 594 ft | 21 kts | 183° |
| 2026-05-06 02:37 | 32.89254 | -97.04771 | 595 ft | 18 kts | 177° |
| 2026-05-06 02:38 | 32.89144 | -97.04770 | 594 ft | 15 kts | 180° |
| 2026-05-06 02:38 | 32.89027 | -97.04770 | 591 ft | 18 kts | 180° |
| 2026-05-06 02:38 | 32.88903 | -97.04771 | 591 ft | 17 kts | 180° |
| 2026-05-06 02:38 | 32.88782 | -97.04771 | 591 ft | 18 kts | 180° |
| 2026-05-06 02:39 | 32.88650 | -97.04773 | 588 ft | 20 kts | 181° |
| 2026-05-06 02:39 | 32.88532 | -97.04775 | 588 ft | 13 kts | 185° |
| 2026-05-06 02:39 | 32.88453 | -97.04811 | 589 ft | 11 kts | 183° |
| 2026-05-06 02:39 | 32.88374 | -97.04810 | 589 ft | 11 kts | 180° |
| 2026-05-06 02:40 | 32.88307 | -97.04810 | 589 ft | 9 kts | 180° |
| 2026-05-06 02:40 | 32.88235 | -97.04811 | 588 ft | 12 kts | 180° |
| 2026-05-06 02:40 | 32.88148 | -97.04813 | 587 ft | 13 kts | 181° |
| 2026-05-06 02:40 | 32.88051 | -97.04809 | 587 ft | 15 kts | 177° |
| 2026-05-06 02:41 | 32.87948 | -97.04811 | 586 ft | 9 kts | 180° |
| 2026-05-06 02:41 | 32.87912 | -97.04834 | 586 ft | 6 kts | 254° |
| 2026-05-06 02:41 | 32.87911 | -97.04888 | 585 ft | 8 kts | 271° |
| 2026-05-06 02:41 | 32.87911 | -97.04957 | 585 ft | 8 kts | 270° |
| 2026-05-06 02:42 | 32.87911 | -97.04973 | 585 ft | 0 kts | 270° |
| 2026-05-06 02:44 | 32.87911 | -97.04974 | 585 ft | 0 kts | 270° |
| 2026-05-06 02:45 | 32.87911 | -97.04982 | 585 ft | 2 kts | 270° |
| 2026-05-06 02:45 | 32.87911 | -97.05002 | 585 ft | 3 kts | 270° |
| 2026-05-06 02:45 | 32.87911 | -97.05038 | 586 ft | 5 kts | 270° |
| 2026-05-06 02:45 | 32.87920 | -97.05086 | 587 ft | 6 kts | 315° |
| 2026-05-06 02:46 | 32.87973 | -97.05093 | 588 ft | 15 kts | 1° |
| 2026-05-06 02:46 | 32.88379 | -97.05088 | 590 ft | 100 kts | 360° |
| 2026-05-06 02:46 | 32.89318 | -97.05089 | 598 ft | 166 kts | 0° |
| 2026-05-06 02:46 | 32.90529 | -97.05091 | 1248 ft | 173 kts | 359° |
| 2026-05-06 02:47 | 32.91738 | -97.05114 | 2135 ft | 174 kts | 359° |
| 2026-05-06 02:47 | 32.92945 | -97.05167 | 2781 ft | 176 kts | 360° |
| 2026-05-06 02:47 | 32.94234 | -97.05238 | 2969 ft | 197 kts | 355° |
| 2026-05-06 02:47 | 32.95624 | -97.05705 | 3107 ft | 218 kts | 342° |
| 2026-05-06 02:48 | 32.97126 | -97.06342 | 3209 ft | 241 kts | 341° |
| 2026-05-06 02:48 | 32.98776 | -97.07064 | 3461 ft | 261 kts | 338° |
| 2026-05-06 02:48 | 33.00285 | -97.08273 | 4064 ft | 266 kts | 306° |
| 2026-05-06 02:48 | 33.01028 | -97.10252 | 4712 ft | 263 kts | 273° |
| 2026-05-06 02:49 | 33.00987 | -97.12410 | 5462 ft | 260 kts | 263° |
| 2026-05-06 02:49 | 33.00852 | -97.14549 | 6280 ft | 258 kts | 263° |
| 2026-05-06 02:49 | 33.00719 | -97.16678 | 7094 ft | 257 kts | 263° |
| 2026-05-06 02:49 | 33.00548 | -97.18818 | 7708 ft | 262 kts | 262° |
| 2026-05-06 02:50 | 33.00330 | -97.20980 | 8413 ft | 264 kts | 262° |
| 2026-05-06 02:50 | 33.00019 | -97.23126 | 9183 ft | 263 kts | 253° |
| 2026-05-06 02:50 | 32.99257 | -97.25103 | 9945 ft | 264 kts | 239° |
| 2026-05-06 02:50 | 32.98131 | -97.26878 | 10381 ft | 277 kts | 235° |
| 2026-05-06 02:51 | 32.96906 | -97.28766 | 10522 ft | 299 kts | 235° |
| 2026-05-06 02:51 | 32.95592 | -97.30799 | 10640 ft | 320 kts | 235° |
| 2026-05-06 02:51 | 32.94196 | -97.32958 | 10764 ft | 338 kts | 235° |
| 2026-05-06 02:51 | 32.92734 | -97.35209 | 11159 ft | 347 kts | 235° |
| 2026-05-06 02:52 | 32.91251 | -97.37486 | 11759 ft | 349 kts | 234° |
| 2026-05-06 02:52 | 32.89760 | -97.39772 | 12396 ft | 350 kts | 234° |
| 2026-05-06 02:52 | 32.88269 | -97.42062 | 13089 ft | 350 kts | 234° |
| 2026-05-06 02:52 | 32.86780 | -97.44353 | 13760 ft | 350 kts | 234° |
| 2026-05-06 02:53 | 32.85286 | -97.46648 | 14357 ft | 352 kts | 234° |
| 2026-05-06 02:53 | 32.83782 | -97.48961 | 14911 ft | 354 kts | 234° |
| 2026-05-06 02:53 | 32.82267 | -97.51286 | 15472 ft | 356 kts | 234° |
| 2026-05-06 02:53 | 32.80739 | -97.53624 | 16037 ft | 359 kts | 234° |
| 2026-05-06 02:54 | 32.79202 | -97.55974 | 16576 ft | 362 kts | 235° |
| 2026-05-06 02:54 | 32.77654 | -97.58344 | 17104 ft | 364 kts | 235° |
| 2026-05-06 02:54 | 32.76094 | -97.60731 | 17627 ft | 367 kts | 235° |
| 2026-05-06 02:54 | 32.74523 | -97.63135 | 18120 ft | 370 kts | 235° |
| 2026-05-06 02:55 | 32.73479 | -97.64734 | 18416 ft | 371 kts | 235° |
| 2026-05-06 02:55 | 32.71894 | -97.67159 | 18870 ft | 372 kts | 235° |
| 2026-05-06 02:55 | 32.70304 | -97.69588 | 19323 ft | 374 kts | 235° |
| 2026-05-06 02:55 | 32.68866 | -97.72149 | 19804 ft | 372 kts | 244° |
| 2026-05-06 02:56 | 32.67896 | -97.74991 | 20186 ft | 373 kts | 254° |
| 2026-05-06 02:56 | 32.67429 | -97.78026 | 20628 ft | 375 kts | 263° |
| 2026-05-06 02:56 | 32.67192 | -97.81115 | 21062 ft | 377 kts | 263° |
| 2026-05-06 02:56 | 32.66959 | -97.84217 | 21503 ft | 378 kts | 263° |
| 2026-05-06 02:57 | 32.66723 | -97.87330 | 21935 ft | 379 kts | 263° |
| 2026-05-06 02:57 | 32.66483 | -97.90456 | 22393 ft | 381 kts | 263° |
| 2026-05-06 02:57 | 32.66238 | -97.93591 | 22824 ft | 382 kts | 263° |
| 2026-05-06 02:57 | 32.65991 | -97.96741 | 23247 ft | 384 kts | 263° |
| 2026-05-06 02:58 | 32.65742 | -97.99903 | 23621 ft | 385 kts | 262° |
| 2026-05-06 02:58 | 32.65491 | -98.03074 | 23969 ft | 387 kts | 262° |
| 2026-05-06 02:58 | 32.65237 | -98.06255 | 24316 ft | 387 kts | 262° |
| 2026-05-06 02:58 | 32.64981 | -98.09442 | 24670 ft | 388 kts | 262° |
| 2026-05-06 02:59 | 32.64727 | -98.12636 | 25021 ft | 389 kts | 262° |
| 2026-05-06 02:59 | 32.64473 | -98.15841 | 25358 ft | 391 kts | 262° |
| 2026-05-06 02:59 | 32.64216 | -98.19053 | 25705 ft | 391 kts | 262° |
| 2026-05-06 02:59 | 32.63958 | -98.22267 | 26048 ft | 392 kts | 262° |
| 2026-05-06 03:00 | 32.63698 | -98.25492 | 26365 ft | 393 kts | 262° |
| 2026-05-06 03:00 | 32.63436 | -98.28722 | 26726 ft | 393 kts | 262° |
| 2026-05-06 03:00 | 32.63176 | -98.31937 | 27180 ft | 390 kts | 262° |
| 2026-05-06 03:00 | 32.62917 | -98.35130 | 27641 ft | 387 kts | 262° |
| 2026-05-06 03:01 | 32.62656 | -98.38297 | 28096 ft | 385 kts | 262° |
| 2026-05-06 03:01 | 32.62396 | -98.41445 | 28534 ft | 382 kts | 262° |
| 2026-05-06 03:01 | 32.62137 | -98.44573 | 28992 ft | 380 kts | 262° |
| 2026-05-06 03:01 | 32.61882 | -98.47675 | 29447 ft | 378 kts | 262° |
| 2026-05-06 03:02 | 32.61628 | -98.50776 | 29899 ft | 376 kts | 262° |
| 2026-05-06 03:02 | 32.61373 | -98.53851 | 30278 ft | 374 kts | 262° |
| 2026-05-06 03:02 | 32.61114 | -98.56916 | 30645 ft | 372 kts | 261° |
| 2026-05-06 03:02 | 32.60858 | -98.59966 | 30998 ft | 371 kts | 261° |
| 2026-05-06 03:03 | 32.60606 | -98.63002 | 31352 ft | 370 kts | 261° |
| 2026-05-06 03:03 | 32.60351 | -98.66031 | 31703 ft | 368 kts | 261° |
| 2026-05-06 03:03 | 32.60096 | -98.69046 | 32071 ft | 367 kts | 261° |
| 2026-05-06 03:03 | 32.59844 | -98.72047 | 32436 ft | 365 kts | 261° |
| 2026-05-06 03:04 | 32.59592 | -98.75040 | 32783 ft | 364 kts | 261° |
| 2026-05-06 03:04 | 32.59338 | -98.78018 | 33132 ft | 363 kts | 261° |
| 2026-05-06 03:04 | 32.59083 | -98.80988 | 33496 ft | 361 kts | 261° |
| 2026-05-06 03:04 | 32.58830 | -98.83946 | 33845 ft | 360 kts | 261° |
| 2026-05-06 03:05 | 32.58577 | -98.86894 | 34146 ft | 359 kts | 261° |
| 2026-05-06 03:05 | 32.58326 | -98.89833 | 34422 ft | 358 kts | 261° |
| 2026-05-06 03:05 | 32.58075 | -98.92766 | 34691 ft | 357 kts | 261° |
| 2026-05-06 03:05 | 32.57825 | -98.95692 | 34967 ft | 356 kts | 261° |
| 2026-05-06 03:06 | 32.57571 | -98.98610 | 35240 ft | 355 kts | 261° |
| 2026-05-06 03:06 | 32.57319 | -99.01518 | 35509 ft | 355 kts | 261° |
| 2026-05-06 03:06 | 32.57065 | -99.04423 | 35765 ft | 354 kts | 261° |
| 2026-05-06 03:07 | 32.56555 | -99.10232 | 35855 ft | 354 kts | 261° |
| 2026-05-06 03:07 | 32.56044 | -99.16045 | 35844 ft | 354 kts | 261° |
| 2026-05-06 03:08 | 32.55530 | -99.21858 | 35830 ft | 354 kts | 261° |
| 2026-05-06 03:08 | 32.55016 | -99.27668 | 35817 ft | 354 kts | 261° |
| 2026-05-06 03:09 | 32.54499 | -99.33482 | 35832 ft | 355 kts | 261° |
| 2026-05-06 03:09 | 32.54098 | -99.39316 | 35856 ft | 356 kts | 262° |
| 2026-05-06 03:10 | 32.53787 | -99.45173 | 35877 ft | 356 kts | 262° |
| 2026-05-06 03:10 | 32.53463 | -99.51031 | 35892 ft | 356 kts | 262° |
| 2026-05-06 03:11 | 32.53108 | -99.56888 | 35908 ft | 356 kts | 262° |
| 2026-05-06 03:11 | 32.52745 | -99.62743 | 35921 ft | 356 kts | 262° |
| 2026-05-06 03:12 | 32.52383 | -99.68597 | 35929 ft | 356 kts | 262° |
| 2026-05-06 03:12 | 32.52022 | -99.74453 | 35929 ft | 356 kts | 262° |
| 2026-05-06 03:13 | 32.51656 | -99.80299 | 35911 ft | 355 kts | 261° |
| 2026-05-06 03:13 | 32.51293 | -99.86134 | 35918 ft | 355 kts | 261° |
| 2026-05-06 03:14 | 32.50927 | -99.91960 | 35923 ft | 354 kts | 261° |
| 2026-05-06 03:14 | 32.50553 | -99.97770 | 35908 ft | 354 kts | 261° |
| 2026-05-06 03:15 | 32.50180 | -100.03576 | 35891 ft | 353 kts | 261° |
| 2026-05-06 03:15 | 32.49801 | -100.09371 | 35878 ft | 352 kts | 261° |
| 2026-05-06 03:16 | 32.49425 | -100.15149 | 35860 ft | 351 kts | 261° |
| 2026-05-06 03:16 | 32.49051 | -100.20916 | 35900 ft | 351 kts | 261° |
| 2026-05-06 03:17 | 32.48669 | -100.26674 | 35929 ft | 350 kts | 261° |
| 2026-05-06 03:17 | 32.48282 | -100.32423 | 35952 ft | 350 kts | 261° |
| 2026-05-06 03:18 | 32.47898 | -100.38170 | 35969 ft | 350 kts | 260° |
| 2026-05-06 03:18 | 32.47517 | -100.43910 | 35969 ft | 350 kts | 261° |
| 2026-05-06 03:19 | 32.47144 | -100.49655 | 35968 ft | 350 kts | 260° |
| 2026-05-06 03:19 | 32.46762 | -100.55388 | 35966 ft | 349 kts | 260° |
| 2026-05-06 03:20 | 32.46176 | -100.63977 | 35929 ft | 349 kts | 260° |
| 2026-05-06 03:20 | 32.45786 | -100.69709 | 35900 ft | 349 kts | 260° |
| 2026-05-06 03:21 | 32.45399 | -100.75430 | 35870 ft | 348 kts | 260° |
| 2026-05-06 03:21 | 32.45004 | -100.81150 | 35842 ft | 348 kts | 260° |
| 2026-05-06 03:22 | 32.44608 | -100.86861 | 35847 ft | 348 kts | 260° |
| 2026-05-06 03:22 | 32.44208 | -100.92563 | 35844 ft | 348 kts | 260° |
| 2026-05-06 03:23 | 32.43801 | -100.98265 | 35836 ft | 347 kts | 260° |
| 2026-05-06 03:23 | 32.43393 | -101.03965 | 35824 ft | 347 kts | 260° |
| 2026-05-06 03:24 | 32.42987 | -101.09663 | 35809 ft | 347 kts | 260° |
| 2026-05-06 03:24 | 32.42583 | -101.15364 | 35793 ft | 348 kts | 260° |
| 2026-05-06 03:25 | 32.42174 | -101.21065 | 35779 ft | 348 kts | 260° |
| 2026-05-06 03:25 | 32.41760 | -101.26770 | 35801 ft | 348 kts | 260° |
| 2026-05-06 03:26 | 32.41344 | -101.32475 | 35818 ft | 348 kts | 260° |
| 2026-05-06 03:26 | 32.40927 | -101.38189 | 35834 ft | 348 kts | 260° |
| 2026-05-06 03:27 | 32.40503 | -101.43865 | 35844 ft | 349 kts | 260° |
| 2026-05-06 03:27 | 32.40074 | -101.49618 | 35851 ft | 349 kts | 260° |
| 2026-05-06 03:28 | 32.39648 | -101.55338 | 35855 ft | 349 kts | 260° |
| 2026-05-06 03:28 | 32.39210 | -101.61064 | 35850 ft | 349 kts | 260° |
| 2026-05-06 03:29 | 32.38770 | -101.66785 | 35836 ft | 350 kts | 260° |
| 2026-05-06 03:29 | 32.38334 | -101.72517 | 35817 ft | 350 kts | 260° |
| 2026-05-06 03:30 | 32.37894 | -101.78249 | 35802 ft | 350 kts | 260° |
| 2026-05-06 03:30 | 32.37452 | -101.83983 | 35781 ft | 350 kts | 260° |
| 2026-05-06 03:31 | 32.37004 | -101.89722 | 35757 ft | 350 kts | 260° |
| 2026-05-06 03:31 | 32.36556 | -101.95462 | 35758 ft | 351 kts | 260° |
| 2026-05-06 03:32 | 32.36107 | -102.01205 | 35772 ft | 351 kts | 260° |
| 2026-05-06 03:32 | 32.35654 | -102.06951 | 35780 ft | 351 kts | 260° |
| 2026-05-06 03:33 | 32.35196 | -102.12691 | 35787 ft | 351 kts | 260° |
| 2026-05-06 03:33 | 32.34816 | -102.17471 | 35790 ft | 351 kts | 260° |
| 2026-05-06 03:34 | 32.34354 | -102.23223 | 35788 ft | 351 kts | 260° |
| 2026-05-06 03:34 | 32.33885 | -102.28970 | 35790 ft | 351 kts | 259° |
| 2026-05-06 03:35 | 32.33415 | -102.34716 | 35785 ft | 351 kts | 260° |
| 2026-05-06 03:35 | 32.32944 | -102.40457 | 35791 ft | 351 kts | 259° |
| 2026-05-06 03:36 | 32.32473 | -102.46197 | 35795 ft | 351 kts | 259° |
| 2026-05-06 03:36 | 32.32004 | -102.51928 | 35795 ft | 350 kts | 259° |
| 2026-05-06 03:37 | 32.31529 | -102.57658 | 35799 ft | 350 kts | 259° |
| 2026-05-06 03:37 | 32.31049 | -102.63391 | 35800 ft | 350 kts | 259° |
| 2026-05-06 03:38 | 32.30568 | -102.69117 | 35801 ft | 350 kts | 259° |
| 2026-05-06 03:38 | 32.30079 | -102.74841 | 35801 ft | 350 kts | 259° |
| 2026-05-06 03:39 | 32.29593 | -102.80557 | 35799 ft | 350 kts | 259° |
| 2026-05-06 03:39 | 32.29103 | -102.86272 | 35799 ft | 349 kts | 259° |
| 2026-05-06 03:40 | 32.28609 | -102.91982 | 35801 ft | 349 kts | 259° |
| 2026-05-06 03:40 | 32.28113 | -102.97698 | 35796 ft | 349 kts | 259° |
| 2026-05-06 03:41 | 32.27619 | -103.03405 | 35797 ft | 349 kts | 259° |
| 2026-05-06 03:41 | 32.27123 | -103.09103 | 35794 ft | 348 kts | 259° |
| 2026-05-06 03:42 | 32.26623 | -103.14798 | 35791 ft | 348 kts | 259° |
| 2026-05-06 03:42 | 32.26121 | -103.20494 | 35790 ft | 349 kts | 259° |
| 2026-05-06 03:43 | 32.25615 | -103.26200 | 35789 ft | 349 kts | 259° |
| 2026-05-06 03:43 | 32.25108 | -103.31901 | 35790 ft | 349 kts | 259° |
| 2026-05-06 03:44 | 32.24595 | -103.37607 | 35792 ft | 349 kts | 258° |
| 2026-05-06 03:44 | 32.24076 | -103.43304 | 35789 ft | 349 kts | 259° |
| 2026-05-06 03:45 | 32.23563 | -103.48997 | 35787 ft | 349 kts | 258° |
| 2026-05-06 03:45 | 32.23043 | -103.54692 | 35784 ft | 349 kts | 258° |
| 2026-05-06 03:46 | 32.22520 | -103.60395 | 35790 ft | 349 kts | 258° |
| 2026-05-06 03:46 | 32.21996 | -103.66100 | 35789 ft | 350 kts | 258° |
| 2026-05-06 03:47 | 32.21473 | -103.71806 | 35788 ft | 349 kts | 258° |
| 2026-05-06 03:47 | 32.20944 | -103.77509 | 35784 ft | 349 kts | 258° |
| 2026-05-06 03:48 | 32.20412 | -103.83207 | 35784 ft | 349 kts | 258° |
| 2026-05-06 03:48 | 32.19881 | -103.88901 | 35790 ft | 349 kts | 258° |
| 2026-05-06 03:49 | 32.19347 | -103.94597 | 35810 ft | 349 kts | 258° |
| 2026-05-06 03:49 | 32.18806 | -104.00295 | 35834 ft | 349 kts | 258° |
| 2026-05-06 03:50 | 32.18259 | -104.05997 | 35849 ft | 350 kts | 258° |
| 2026-05-06 03:50 | 32.17711 | -104.11695 | 35870 ft | 349 kts | 258° |
| 2026-05-06 03:51 | 32.17165 | -104.17390 | 35877 ft | 349 kts | 258° |
| 2026-05-06 03:51 | 32.16617 | -104.23086 | 35876 ft | 349 kts | 258° |
| 2026-05-06 03:52 | 32.16061 | -104.28777 | 35876 ft | 349 kts | 258° |
| 2026-05-06 03:52 | 32.15507 | -104.34479 | 35873 ft | 350 kts | 258° |
| 2026-05-06 03:53 | 32.14951 | -104.40182 | 35852 ft | 350 kts | 258° |
| 2026-05-06 03:53 | 32.14386 | -104.45887 | 35845 ft | 350 kts | 257° |
| 2026-05-06 03:54 | 32.13820 | -104.51594 | 35828 ft | 350 kts | 257° |
| 2026-05-06 03:54 | 32.13256 | -104.57299 | 35816 ft | 351 kts | 257° |
| 2026-05-06 03:55 | 32.12685 | -104.63037 | 35803 ft | 352 kts | 257° |
| 2026-05-06 03:55 | 32.12115 | -104.68761 | 35810 ft | 351 kts | 257° |
| 2026-05-06 03:56 | 32.11535 | -104.74479 | 35816 ft | 350 kts | 257° |
| 2026-05-06 03:56 | 32.10958 | -104.80178 | 35821 ft | 350 kts | 257° |
| 2026-05-06 03:57 | 32.10381 | -104.85876 | 35818 ft | 350 kts | 257° |
| 2026-05-06 03:57 | 32.09803 | -104.91562 | 35810 ft | 348 kts | 257° |
| 2026-05-06 03:58 | 32.09219 | -104.97246 | 35819 ft | 349 kts | 257° |
| 2026-05-06 03:58 | 32.08638 | -105.02932 | 35811 ft | 349 kts | 257° |
| 2026-05-06 03:59 | 32.08046 | -105.08611 | 35809 ft | 349 kts | 257° |
| 2026-05-06 03:59 | 32.07458 | -105.14296 | 35806 ft | 349 kts | 257° |
| 2026-05-06 04:00 | 32.06863 | -105.19979 | 35809 ft | 350 kts | 257° |
| 2026-05-06 04:00 | 32.06263 | -105.25673 | 35810 ft | 350 kts | 257° |
| 2026-05-06 04:01 | 32.05659 | -105.31371 | 35810 ft | 350 kts | 257° |
| 2026-05-06 04:01 | 32.05055 | -105.37079 | 35810 ft | 351 kts | 257° |
| 2026-05-06 04:02 | 32.04456 | -105.42787 | 35813 ft | 351 kts | 257° |
| 2026-05-06 04:02 | 32.03845 | -105.48504 | 35813 ft | 352 kts | 257° |
| 2026-05-06 04:03 | 32.03230 | -105.54228 | 35809 ft | 352 kts | 257° |
| 2026-05-06 04:03 | 32.02615 | -105.59933 | 35800 ft | 350 kts | 257° |
| 2026-05-06 04:04 | 32.02002 | -105.65616 | 35801 ft | 349 kts | 257° |
| 2026-05-06 04:04 | 32.01386 | -105.71304 | 35802 ft | 350 kts | 257° |
| 2026-05-06 04:05 | 32.00763 | -105.76991 | 35803 ft | 350 kts | 257° |
| 2026-05-06 04:05 | 32.00143 | -105.82686 | 35811 ft | 351 kts | 257° |
| 2026-05-06 04:06 | 31.99515 | -105.88387 | 35814 ft | 351 kts | 257° |
| 2026-05-06 04:06 | 31.98887 | -105.94093 | 35817 ft | 352 kts | 257° |
| 2026-05-06 04:07 | 31.98257 | -105.99804 | 35819 ft | 351 kts | 257° |
| 2026-05-06 04:07 | 31.97622 | -106.05510 | 35850 ft | 352 kts | 256° |
| 2026-05-06 04:08 | 31.96982 | -106.11212 | 35878 ft | 351 kts | 257° |
| 2026-05-06 04:08 | 31.96341 | -106.16915 | 35908 ft | 351 kts | 257° |
| 2026-05-06 04:09 | 31.95693 | -106.22618 | 35928 ft | 351 kts | 257° |
| 2026-05-06 04:09 | 31.95280 | -106.28336 | 35950 ft | 360 kts | 266° |
| 2026-05-06 04:10 | 31.95783 | -106.34231 | 35958 ft | 362 kts | 267° |
| 2026-05-06 04:10 | 31.96278 | -106.40143 | 35959 ft | 363 kts | 267° |
| 2026-05-06 04:11 | 31.96772 | -106.46059 | 35939 ft | 363 kts | 267° |
| 2026-05-06 04:11 | 31.97274 | -106.51976 | 35927 ft | 364 kts | 267° |
| 2026-05-06 04:12 | 31.97778 | -106.57903 | 35966 ft | 364 kts | 267° |
| 2026-05-06 04:12 | 31.98190 | -106.62842 | 35986 ft | 364 kts | 267° |
| 2026-05-06 04:13 | 31.98767 | -106.69784 | 35993 ft | 365 kts | 267° |
| 2026-05-06 04:13 | 31.99178 | -106.74731 | 35990 ft | 365 kts | 267° |
| 2026-05-06 04:14 | 31.99664 | -106.80690 | 35972 ft | 365 kts | 267° |
| 2026-05-06 04:14 | 32.00150 | -106.86654 | 35940 ft | 366 kts | 267° |
| 2026-05-06 04:15 | 32.00634 | -106.92624 | 35911 ft | 366 kts | 267° |
| 2026-05-06 04:15 | 32.01117 | -106.98596 | 35874 ft | 366 kts | 267° |
| 2026-05-06 04:16 | 32.01593 | -107.04571 | 35867 ft | 366 kts | 267° |
| 2026-05-06 04:16 | 32.02071 | -107.10550 | 35853 ft | 366 kts | 267° |
| 2026-05-06 04:17 | 32.02795 | -107.19672 | 35831 ft | 367 kts | 266° |
| 2026-05-06 04:17 | 32.04649 | -107.43513 | 35851 ft | 366 kts | 266° |
| 2026-05-06 04:18 | 32.06460 | -107.67414 | 35948 ft | 367 kts | 266° |
| 2026-05-06 04:18 | 32.08237 | -107.91337 | 35921 ft | 366 kts | 266° |
| 2026-05-06 04:19 | 32.09963 | -108.15307 | 35860 ft | 367 kts | 266° |
| 2026-05-06 04:19 | 32.11646 | -108.39273 | 35897 ft | 366 kts | 266° |
| 2026-05-06 04:20 | 32.13266 | -108.63127 | 35983 ft | 363 kts | 266° |
| 2026-05-06 04:20 | 32.14829 | -108.86768 | 35966 ft | 361 kts | 265° |
| 2026-05-06 04:21 | 32.16360 | -109.10393 | 35893 ft | 361 kts | 265° |
| 2026-05-06 04:21 | 32.18556 | -109.33944 | 35898 ft | 369 kts | 274° |
| 2026-05-06 04:22 | 32.21845 | -109.49353 | 35894 ft | 368 kts | 273° |
| 2026-05-06 04:23 | 32.23695 | -109.58153 | 35891 ft | 367 kts | 273° |
| 2026-05-06 04:23 | 32.24924 | -109.64014 | 35895 ft | 368 kts | 273° |
| 2026-05-06 04:24 | 32.26151 | -109.69850 | 35896 ft | 369 kts | 274° |
| 2026-05-06 04:24 | 32.27381 | -109.75744 | 35903 ft | 369 kts | 273° |
| 2026-05-06 04:25 | 32.28612 | -109.81637 | 35908 ft | 369 kts | 273° |
| 2026-05-06 04:25 | 32.29849 | -109.87569 | 35908 ft | 369 kts | 273° |
| 2026-05-06 04:26 | 32.31079 | -109.93465 | 35916 ft | 369 kts | 273° |
| 2026-05-06 04:26 | 32.32293 | -109.99321 | 35915 ft | 369 kts | 273° |
| 2026-05-06 04:27 | 32.33515 | -110.05215 | 35920 ft | 369 kts | 274° |
| 2026-05-06 04:27 | 32.34726 | -110.11117 | 35923 ft | 369 kts | 273° |
| 2026-05-06 04:28 | 32.35938 | -110.17025 | 35923 ft | 370 kts | 273° |
| 2026-05-06 04:28 | 32.37155 | -110.22943 | 35921 ft | 370 kts | 273° |
| 2026-05-06 04:29 | 32.38367 | -110.28873 | 35759 ft | 371 kts | 273° |
| 2026-05-06 04:29 | 32.38974 | -110.31827 | 35366 ft | 368 kts | 273° |
| 2026-05-06 04:29 | 32.39578 | -110.34777 | 34762 ft | 369 kts | 273° |
| 2026-05-06 04:29 | 32.40179 | -110.37733 | 34129 ft | 371 kts | 273° |
| 2026-05-06 04:30 | 32.40783 | -110.40713 | 33381 ft | 373 kts | 273° |
| 2026-05-06 04:30 | 32.41388 | -110.43707 | 32697 ft | 374 kts | 274° |
| 2026-05-06 04:30 | 32.41994 | -110.46701 | 31995 ft | 375 kts | 274° |
| 2026-05-06 04:30 | 32.42604 | -110.49712 | 31257 ft | 377 kts | 274° |
| 2026-05-06 04:31 | 32.43218 | -110.52742 | 30506 ft | 380 kts | 274° |
| 2026-05-06 04:31 | 32.43836 | -110.55796 | 29676 ft | 383 kts | 274° |
| 2026-05-06 04:31 | 32.44457 | -110.58866 | 28806 ft | 385 kts | 274° |
| 2026-05-06 04:31 | 32.45078 | -110.61946 | 28085 ft | 383 kts | 275° |
| 2026-05-06 04:32 | 32.45694 | -110.64955 | 27934 ft | 369 kts | 275° |
| 2026-05-06 04:32 | 32.46293 | -110.67863 | 27675 ft | 358 kts | 275° |
| 2026-05-06 04:32 | 32.47045 | -110.70685 | 27419 ft | 364 kts | 283° |
| 2026-05-06 04:32 | 32.48260 | -110.73361 | 27178 ft | 375 kts | 292° |
| 2026-05-06 04:33 | 32.49721 | -110.75925 | 26926 ft | 376 kts | 292° |
| 2026-05-06 04:33 | 32.51187 | -110.78485 | 26578 ft | 375 kts | 293° |
| 2026-05-06 04:33 | 32.52648 | -110.81034 | 26140 ft | 373 kts | 293° |
| 2026-05-06 04:33 | 32.54104 | -110.83579 | 25702 ft | 372 kts | 293° |
| 2026-05-06 04:34 | 32.55552 | -110.86111 | 25261 ft | 370 kts | 294° |
| 2026-05-06 04:34 | 32.56995 | -110.88634 | 24833 ft | 369 kts | 294° |
| 2026-05-06 04:34 | 32.58433 | -110.91153 | 24392 ft | 369 kts | 294° |
| 2026-05-06 04:34 | 32.59872 | -110.93670 | 23956 ft | 368 kts | 294° |
| 2026-05-06 04:35 | 32.61305 | -110.96177 | 23516 ft | 367 kts | 295° |
| 2026-05-06 04:35 | 32.62732 | -110.98681 | 23010 ft | 366 kts | 295° |
| 2026-05-06 04:35 | 32.64152 | -111.01177 | 22578 ft | 365 kts | 295° |
| 2026-05-06 04:35 | 32.65567 | -111.03668 | 22146 ft | 363 kts | 295° |
| 2026-05-06 04:36 | 32.66977 | -111.06146 | 21716 ft | 361 kts | 296° |
| 2026-05-06 04:36 | 32.68382 | -111.08613 | 21277 ft | 360 kts | 296° |
| 2026-05-06 04:36 | 32.69780 | -111.11069 | 20857 ft | 358 kts | 296° |
| 2026-05-06 04:36 | 32.71160 | -111.13490 | 20555 ft | 349 kts | 296° |
| 2026-05-06 04:37 | 32.72503 | -111.15836 | 20038 ft | 342 kts | 296° |
| 2026-05-06 04:37 | 32.73832 | -111.18176 | 19603 ft | 340 kts | 296° |
| 2026-05-06 04:37 | 32.75146 | -111.20503 | 19192 ft | 338 kts | 297° |
| 2026-05-06 04:37 | 32.76450 | -111.22819 | 18791 ft | 337 kts | 297° |
| 2026-05-06 04:38 | 32.77750 | -111.25127 | 18381 ft | 335 kts | 297° |
| 2026-05-06 04:38 | 32.79042 | -111.27419 | 17929 ft | 333 kts | 298° |
| 2026-05-06 04:38 | 32.80331 | -111.29700 | 17508 ft | 332 kts | 298° |
| 2026-05-06 04:38 | 32.81616 | -111.31969 | 17105 ft | 330 kts | 298° |
| 2026-05-06 04:39 | 32.82895 | -111.34230 | 16704 ft | 329 kts | 298° |
| 2026-05-06 04:39 | 32.84163 | -111.36480 | 16331 ft | 327 kts | 298° |
| 2026-05-06 04:39 | 32.85444 | -111.38757 | 15970 ft | 326 kts | 299° |
| 2026-05-06 04:39 | 32.86687 | -111.40963 | 15590 ft | 325 kts | 299° |
| 2026-05-06 04:40 | 32.87943 | -111.43193 | 15197 ft | 324 kts | 299° |
| 2026-05-06 04:40 | 32.89203 | -111.45431 | 14938 ft | 316 kts | 300° |
| 2026-05-06 04:40 | 32.90479 | -111.47462 | 14785 ft | 309 kts | 309° |
| 2026-05-06 04:40 | 32.92136 | -111.49136 | 14531 ft | 309 kts | 323° |
| 2026-05-06 04:41 | 32.94064 | -111.50294 | 14164 ft | 313 kts | 334° |
| 2026-05-06 04:41 | 32.96087 | -111.51272 | 13699 ft | 315 kts | 334° |
| 2026-05-06 04:41 | 32.98109 | -111.52250 | 13271 ft | 314 kts | 334° |
| 2026-05-06 04:41 | 33.00126 | -111.53229 | 12872 ft | 312 kts | 334° |
| 2026-05-06 04:42 | 33.02140 | -111.54208 | 12466 ft | 311 kts | 334° |
| 2026-05-06 04:42 | 33.04113 | -111.55167 | 12309 ft | 301 kts | 334° |
| 2026-05-06 04:42 | 33.06022 | -111.56092 | 12185 ft | 291 kts | 334° |
| 2026-05-06 04:42 | 33.07877 | -111.56995 | 11922 ft | 287 kts | 334° |
| 2026-05-06 04:43 | 33.09727 | -111.57909 | 11589 ft | 286 kts | 334° |
| 2026-05-06 04:43 | 33.11548 | -111.58813 | 11185 ft | 281 kts | 334° |
| 2026-05-06 04:43 | 33.13347 | -111.59705 | 10640 ft | 278 kts | 334° |
| 2026-05-06 04:43 | 33.15151 | -111.60600 | 10224 ft | 283 kts | 334° |
| 2026-05-06 04:44 | 33.16966 | -111.61502 | 9896 ft | 282 kts | 334° |
| 2026-05-06 04:44 | 33.18786 | -111.62408 | 9561 ft | 281 kts | 335° |
| 2026-05-06 04:44 | 33.20550 | -111.63282 | 9266 ft | 264 kts | 334° |
| 2026-05-06 04:44 | 33.22180 | -111.64082 | 9101 ft | 244 kts | 334° |
| 2026-05-06 04:45 | 33.23722 | -111.64868 | 8930 ft | 239 kts | 332° |
| 2026-05-06 04:45 | 33.25208 | -111.65710 | 8570 ft | 235 kts | 330° |
| 2026-05-06 04:45 | 33.26667 | -111.66572 | 8251 ft | 233 kts | 330° |
| 2026-05-06 04:45 | 33.28116 | -111.67437 | 7950 ft | 232 kts | 330° |
| 2026-05-06 04:46 | 33.29584 | -111.68311 | 7648 ft | 241 kts | 331° |
| 2026-05-06 04:46 | 33.31094 | -111.69206 | 7334 ft | 242 kts | 331° |
| 2026-05-06 04:46 | 33.32598 | -111.70093 | 7009 ft | 241 kts | 331° |
| 2026-05-06 04:46 | 33.34093 | -111.70975 | 6689 ft | 238 kts | 332° |
| 2026-05-06 04:47 | 33.35573 | -111.71844 | 6388 ft | 236 kts | 332° |
| 2026-05-06 04:47 | 33.37038 | -111.72701 | 6059 ft | 233 kts | 332° |
| 2026-05-06 04:47 | 33.38487 | -111.73551 | 5737 ft | 230 kts | 332° |
| 2026-05-06 04:47 | 33.39914 | -111.74387 | 5440 ft | 226 kts | 332° |
| 2026-05-06 04:48 | 33.41300 | -111.75195 | 5193 ft | 215 kts | 332° |
| 2026-05-06 04:48 | 33.42611 | -111.75957 | 4932 ft | 204 kts | 332° |
| 2026-05-06 04:48 | 33.43688 | -111.76944 | 4701 ft | 190 kts | 304° |
| 2026-05-06 04:48 | 33.44117 | -111.78351 | 4485 ft | 176 kts | 266° |
| 2026-05-06 04:49 | 33.44015 | -111.79766 | 4271 ft | 168 kts | 268° |
| 2026-05-06 04:49 | 33.44029 | -111.81135 | 4085 ft | 161 kts | 268° |
| 2026-05-06 04:49 | 33.44040 | -111.82468 | 3866 ft | 158 kts | 268° |
| 2026-05-06 04:49 | 33.44047 | -111.83777 | 3654 ft | 157 kts | 269° |
| 2026-05-06 04:50 | 33.44052 | -111.85053 | 3465 ft | 149 kts | 268° |
| 2026-05-06 04:50 | 33.44056 | -111.86249 | 3259 ft | 144 kts | 269° |
| 2026-05-06 04:50 | 33.44059 | -111.87438 | 3063 ft | 142 kts | 269° |
| 2026-05-06 04:50 | 33.44061 | -111.88619 | 2873 ft | 142 kts | 268° |
| 2026-05-06 04:51 | 33.44064 | -111.89792 | 2696 ft | 140 kts | 269° |
| 2026-05-06 04:51 | 33.44067 | -111.90966 | 2507 ft | 141 kts | 269° |
| 2026-05-06 04:51 | 33.44069 | -111.92136 | 2330 ft | 140 kts | 269° |
| 2026-05-06 04:51 | 33.44071 | -111.93304 | 2157 ft | 140 kts | 270° |
| 2026-05-06 04:52 | 33.44074 | -111.94467 | 1976 ft | 139 kts | 269° |
| 2026-05-06 04:52 | 33.44076 | -111.95619 | 1793 ft | 139 kts | 270° |
| 2026-05-06 04:52 | 33.44077 | -111.96396 | 1668 ft | 137 kts | 271° |
| 2026-05-06 04:52 | 33.44080 | -111.97898 | 1423 ft | 135 kts | 270° |
| 2026-05-06 04:53 | 33.44084 | -111.98656 | 1285 ft | 135 kts | 270° |
| 2026-05-06 04:53 | 33.44091 | -111.99771 | 1131 ft | 130 kts | 270° |
| 2026-05-06 04:53 | 33.44091 | -112.00759 | 1123 ft | 34 kts | 268° |
| 2026-05-06 04:53 | 33.44089 | -112.00818 | 1124 ft | 2 kts | 268° |
| 2026-05-06 04:54 | 33.44088 | -112.00860 | 1124 ft | 11 kts | 268° |
| 2026-05-06 04:54 | 33.44083 | -112.01007 | 1125 ft | 15 kts | 263° |
| 2026-05-06 04:54 | 33.44016 | -112.01090 | 1120 ft | 13 kts | 181° |
| 2026-05-06 04:54 | 33.43973 | -112.01003 | 1124 ft | 14 kts | 90° |
| 2026-05-06 04:55 | 33.43973 | -112.00874 | 1119 ft | 16 kts | 90° |
| 2026-05-06 04:55 | 33.43973 | -112.00732 | 1124 ft | 18 kts | 90° |
| 2026-05-06 04:55 | 33.43973 | -112.00576 | 1124 ft | 20 kts | 90° |
| 2026-05-06 04:55 | 33.43973 | -112.00406 | 1122 ft | 21 kts | 90° |
| 2026-05-06 04:56 | 33.43973 | -112.00224 | 1119 ft | 22 kts | 90° |
| 2026-05-06 04:56 | 33.43974 | -112.00105 | 1119 ft | 8 kts | 90° |
| 2026-05-06 04:56 | 33.43934 | -112.00075 | 1115 ft | 8 kts | 173° |
| 2026-05-06 04:56 | 33.43869 | -112.00075 | 1119 ft | 10 kts | 180° |
| 2026-05-06 04:57 | 33.43816 | -112.00075 | 1122 ft | 8 kts | 180° |
| 2026-05-06 04:57 | 33.43770 | -112.00074 | 1130 ft | 5 kts | 176° |
| 2026-05-06 04:57 | 33.43758 | -112.00049 | 1110 ft | 3 kts | 93° |
| 2026-05-06 04:57 | 33.43758 | -112.00013 | 1126 ft | 5 kts | 93° |
| 2026-05-06 04:58 | 33.43758 | -111.99992 | 1127 ft | 2 kts | 89° |
| 2026-05-06 04:58 | 33.43758 | -111.99981 | 1124 ft | 0 kts | 89° |